createdAt,value
2023-03-22T00:04:42.240Z,10.8
2023-03-22T00:09:42.332Z,7.7
2023-03-22T00:14:42.237Z,8.2
2023-03-22T00:19:42.327Z,11.3
2023-03-22T00:24:42.269Z,12.0
2023-03-22T00:29:42.331Z,12.0
2023-03-22T00:34:42.245Z,12.5
2023-03-22T00:39:42.318Z,10.1
2023-03-22T00:44:42.268Z,10.7
2023-03-22T00:49:42.330Z,11.2
2023-03-22T00:54:42.276Z,11.9
2023-03-22T00:59:42.336Z,11.9
2023-03-22T01:04:42.280Z,10.9
2023-03-22T01:09:42.348Z,15.7
2023-03-22T01:14:42.282Z,11.1
2023-03-22T01:19:42.338Z,13.6
2023-03-22T01:24:42.278Z,12.4
2023-03-22T01:29:42.343Z,12.4
2023-03-22T01:34:42.274Z,10.7
2023-03-22T01:39:42.344Z,12.4
2023-03-22T01:44:42.281Z,10.1
2023-03-22T01:49:42.345Z,12.3
2023-03-22T01:54:42.282Z,10.5
2023-03-22T01:59:42.346Z,10.5
2023-03-22T02:04:42.295Z,13.2
2023-03-22T02:09:42.378Z,12.7
2023-03-22T02:14:42.287Z,10.1
2023-03-22T02:19:42.412Z,11.2
2023-03-22T02:24:44.009Z,11.2
2023-03-22T02:29:42.345Z,11.2
2023-03-22T02:39:42.352Z,11.0
2023-03-22T02:44:42.314Z,12.8
2023-03-22T02:54:44.536Z,10.3
2023-03-22T02:59:42.443Z,10.3
2023-03-22T03:04:42.332Z,11.8
2023-03-22T03:09:42.364Z,8.9
2023-03-22T03:14:42.377Z,7.5
2023-03-22T03:19:42.344Z,9.4
2023-03-22T03:24:42.308Z,8.0
2023-03-22T03:29:42.392Z,8.0
2023-03-22T03:34:42.293Z,7.6
2023-03-22T03:39:42.359Z,9.5
2023-03-22T03:44:42.337Z,7.1
2023-03-22T03:49:42.386Z,10.1
2023-03-22T03:54:42.322Z,5.3
2023-03-22T03:59:42.407Z,5.3
2023-03-22T04:04:42.396Z,8.2
2023-03-22T04:09:42.397Z,7.8
2023-03-22T04:19:42.392Z,9.0
2023-03-22T04:24:42.322Z,6.1
2023-03-22T04:29:42.411Z,6.1
2023-03-22T04:34:42.340Z,7.7
2023-03-22T04:39:42.411Z,5.5
2023-03-22T04:44:42.317Z,6.3
2023-03-22T04:49:42.371Z,6.7
2023-03-22T04:54:42.326Z,3.6
2023-03-22T04:59:42.373Z,3.6
2023-03-22T05:04:42.336Z,4.3
2023-03-22T05:09:42.467Z,6.7
2023-03-22T05:14:42.407Z,5.2
2023-03-22T05:19:42.397Z,7.0
2023-03-22T05:24:42.346Z,4.9
2023-03-22T05:29:42.402Z,4.9
2023-03-22T05:34:42.349Z,3.2
2023-03-22T05:39:42.410Z,7.1
2023-03-22T05:44:42.352Z,4.6
2023-03-22T05:49:42.409Z,5.8
2023-03-22T05:54:42.359Z,4.6
2023-03-22T05:59:42.410Z,4.6
2023-03-22T06:04:42.366Z,4.1
2023-03-22T06:09:42.485Z,6.4
2023-03-22T06:14:42.350Z,4.1
2023-03-22T06:19:42.432Z,4.6
2023-03-22T06:24:42.392Z,7.0
2023-03-22T06:29:42.419Z,7.0
2023-03-22T06:34:42.376Z,6.2
2023-03-22T06:39:42.430Z,5.5
2023-03-22T06:44:42.376Z,5.3
2023-03-22T06:49:42.420Z,7.4
2023-03-22T06:54:42.411Z,3.3
2023-03-22T06:59:42.426Z,3.3
2023-03-22T07:04:42.464Z,2.6
2023-03-22T07:09:42.454Z,5.0
2023-03-22T07:14:42.366Z,7.0
2023-03-22T07:19:42.454Z,12.5
2023-03-22T07:24:55.804Z,15.7
2023-03-22T07:29:42.388Z,15.7
2023-03-22T07:34:42.373Z,15.8
2023-03-22T07:39:42.462Z,16.3
2023-03-22T07:44:42.391Z,18.2
2023-03-22T07:49:42.468Z,17.9
2023-03-22T07:54:42.405Z,18.5
2023-03-22T07:59:42.456Z,18.5
2023-03-22T08:04:42.392Z,16.9
2023-03-22T08:09:42.471Z,16.8
2023-03-22T08:14:42.496Z,19.8
2023-03-22T08:19:42.463Z,18.7
2023-03-22T08:24:42.403Z,20.4
2023-03-22T08:29:42.454Z,20.4
2023-03-22T08:34:42.395Z,13.4
2023-03-22T08:39:42.461Z,16.3
2023-03-22T08:44:42.395Z,15.7
2023-03-22T08:49:42.372Z,18.0
2023-03-22T08:54:42.395Z,17.3
2023-03-22T08:59:42.469Z,17.3
2023-03-22T09:04:42.398Z,13.7
2023-03-22T09:09:42.467Z,12.6
2023-03-22T09:14:42.373Z,17.9
2023-03-22T09:19:42.402Z,14.7
2023-03-22T09:24:42.416Z,11.8
2023-03-22T09:29:42.389Z,11.8
2023-03-22T09:34:42.405Z,16.3
2023-03-22T09:39:42.472Z,13.3
2023-03-22T09:44:42.473Z,12.2
2023-03-22T09:49:53.022Z,16.0
2023-03-22T09:54:42.385Z,14.0
2023-03-22T09:59:42.497Z,14.0
2023-03-22T10:04:42.400Z,18.9
2023-03-22T10:09:42.493Z,15.5
2023-03-22T10:14:42.418Z,17.0
2023-03-22T10:19:42.543Z,16.7
2023-03-22T10:24:42.422Z,13.7
2023-03-22T10:29:42.425Z,13.7
2023-03-22T10:34:42.391Z,15.3
2023-03-22T10:39:42.538Z,19.0
2023-03-22T10:44:42.437Z,16.0
2023-03-22T10:49:42.441Z,18.1
2023-03-22T10:54:42.423Z,15.8
2023-03-22T10:59:42.419Z,15.8
2023-03-22T11:04:42.388Z,19.3
2023-03-22T11:09:42.566Z,16.5
2023-03-22T11:14:42.451Z,19.2
2023-03-22T11:19:42.421Z,15.8
2023-03-22T11:24:42.426Z,14.5
2023-03-22T11:29:42.426Z,14.5
2023-03-22T11:34:42.419Z,13.6
2023-03-22T11:39:42.412Z,11.6
2023-03-22T11:44:42.407Z,14.7
2023-03-22T11:49:42.415Z,13.0
2023-03-22T11:54:42.648Z,16.9
2023-03-22T11:59:42.414Z,16.9
2023-03-22T12:04:42.488Z,12.8
2023-03-22T12:09:42.504Z,13.6
2023-03-22T12:14:42.513Z,15.7
2023-03-22T12:19:42.445Z,18.7
2023-03-22T12:24:43.089Z,14.3
2023-03-22T12:29:42.427Z,14.3
2023-03-22T12:34:42.470Z,21.2
2023-03-22T12:39:42.505Z,19.3
2023-03-22T12:44:43.435Z,20.2
2023-03-22T12:49:42.508Z,20.1
2023-03-22T12:54:42.496Z,17.6
2023-03-22T12:59:42.581Z,17.6
2023-03-22T13:04:42.429Z,14.7
2023-03-22T13:09:42.538Z,16.4
2023-03-22T13:14:42.484Z,15.6
2023-03-22T13:19:42.582Z,24.0
2023-03-22T13:24:42.448Z,19.4
2023-03-22T13:29:42.513Z,19.4
2023-03-22T13:34:42.424Z,14.0
2023-03-22T13:39:42.514Z,17.1
2023-03-22T13:44:42.424Z,16.4
2023-03-22T13:49:42.561Z,16.3
2023-03-22T13:54:42.468Z,14.8
2023-03-22T13:59:42.625Z,14.8
2023-03-22T14:04:42.432Z,17.3
2023-03-22T14:09:42.553Z,17.0
2023-03-22T14:14:42.448Z,14.4
2023-03-22T14:19:42.444Z,15.4
2023-03-22T14:54:42.467Z,19.1
2023-03-22T14:59:42.514Z,19.1
2023-03-22T15:04:42.450Z,14.9
2023-03-22T15:09:42.572Z,13.5
2023-03-22T15:14:42.477Z,18.1
2023-03-22T15:19:42.518Z,19.1
2023-03-22T15:24:42.446Z,10.1
2023-03-22T15:29:42.518Z,10.1
2023-03-22T15:34:42.466Z,14.8
2023-03-22T15:39:42.550Z,16.7
2023-03-22T15:44:42.449Z,12.1
2023-03-22T15:49:42.519Z,13.4
2023-03-22T15:54:42.457Z,12.5
2023-03-22T15:59:42.521Z,12.5
2023-03-22T16:04:42.474Z,14.7
2023-03-22T16:09:42.582Z,11.3
2023-03-22T16:14:42.470Z,17.7
2023-03-22T16:19:42.652Z,11.4
2023-03-22T16:24:42.471Z,14.7
2023-03-22T16:29:42.580Z,14.7
2023-03-22T16:34:42.478Z,16.7
2023-03-22T16:39:42.533Z,13.2
2023-03-22T16:44:50.466Z,22.7
2023-03-22T16:49:42.533Z,16.6
2023-03-22T16:54:42.472Z,19.7
2023-03-22T17:04:42.505Z,14.6
2023-03-22T17:09:42.532Z,12.5
2023-03-22T17:14:42.468Z,14.9
2023-03-22T17:19:42.532Z,12.5
2023-03-22T17:24:42.498Z,10.0
2023-03-22T17:29:42.529Z,10.0
2023-03-22T17:34:42.486Z,12.4
2023-03-22T17:40:12.081Z,12.9
2023-03-22T17:44:43.327Z,12.9
2023-03-22T17:49:42.572Z,14.2
2023-03-22T17:55:01.936Z,20.0
2023-03-22T17:59:42.532Z,20.0
2023-03-22T18:04:42.482Z,19.7
2023-03-22T18:09:42.569Z,11.7
2023-03-22T18:14:42.484Z,18.1
2023-03-22T18:20:07.317Z,17.8
2023-03-22T18:24:42.475Z,13.7
2023-03-22T18:29:42.530Z,13.7
2023-03-22T18:34:42.486Z,15.6
2023-03-22T18:40:17.577Z,13.3
2023-03-22T18:44:42.478Z,11.5
2023-03-22T18:49:42.530Z,12.0
2023-03-22T18:54:43.832Z,12.0
2023-03-22T18:59:42.531Z,12.0
2023-03-22T19:04:42.468Z,11.8
2023-03-22T19:09:42.536Z,12.9
2023-03-22T19:15:24.994Z,14.1
2023-03-22T19:19:42.534Z,14.9
2023-03-22T19:24:42.464Z,13.7
2023-03-22T19:29:42.600Z,13.7
2023-03-22T19:34:42.493Z,18.6
2023-03-22T19:39:42.738Z,15.8
2023-03-22T19:44:42.462Z,9.9
2023-03-22T19:49:42.530Z,15.4
2023-03-22T19:54:45.420Z,12.1
2023-03-22T19:59:51.405Z,12.1
2023-03-22T20:04:42.483Z,8.1
2023-03-22T20:09:42.547Z,5.7
2023-03-22T20:14:42.464Z,7.2
2023-03-22T20:19:42.588Z,6.3
2023-03-22T20:24:42.474Z,9.6
2023-03-22T20:29:42.549Z,9.6
2023-03-22T20:34:42.498Z,6.0
2023-03-22T20:39:42.548Z,7.7
2023-03-22T20:44:42.492Z,7.1
2023-03-22T20:49:42.544Z,12.4
2023-03-22T20:54:42.479Z,13.4
2023-03-22T20:59:42.540Z,13.4
2023-03-22T21:04:42.463Z,14.8
2023-03-22T21:09:42.540Z,16.5
2023-03-22T21:14:42.485Z,32.8
2023-03-22T21:19:42.542Z,26.0
2023-03-22T21:24:42.492Z,13.1
2023-03-22T21:29:42.557Z,13.1
2023-03-22T21:34:42.483Z,19.4
2023-03-22T21:39:42.548Z,14.6
2023-03-22T21:44:42.484Z,13.7
2023-03-22T21:49:42.552Z,13.3
2023-03-22T21:54:42.490Z,12.6
2023-03-22T21:59:42.553Z,12.6
2023-03-22T22:04:42.488Z,12.7
2023-03-22T22:09:42.612Z,18.8
2023-03-22T22:14:42.506Z,12.0
2023-03-22T22:19:42.561Z,14.4
2023-03-22T22:24:42.506Z,13.9
2023-03-22T22:29:42.564Z,13.9
2023-03-22T22:34:42.505Z,21.1
2023-03-22T22:39:42.561Z,12.6
2023-03-22T22:44:42.492Z,16.2
2023-03-22T22:49:42.574Z,22.5
2023-03-22T22:54:42.495Z,17.8
2023-03-22T22:59:42.553Z,17.8
2023-03-22T23:04:42.489Z,14.9
2023-03-22T23:09:42.556Z,14.4
2023-03-22T23:14:42.485Z,7.3
2023-03-22T23:19:42.546Z,2.9
2023-03-22T23:24:42.469Z,2.3
2023-03-22T23:29:42.544Z,2.3
2023-03-22T23:34:42.475Z,2.4
2023-03-22T23:39:42.549Z,2.6
2023-03-22T23:44:42.489Z,4.0
2023-03-22T23:49:42.553Z,3.7
2023-03-22T23:54:42.491Z,4.3
2023-03-22T23:59:42.558Z,4.3
